createdAt,value
2022-08-07T00:03:00.999Z,21.13
2022-08-07T00:08:23.822Z,20.96
2022-08-07T00:13:27.379Z,20.99
2022-08-07T00:18:29.942Z,21.10
2022-08-07T00:23:34.740Z,21.07
2022-08-07T00:28:45.548Z,21.02
2022-08-07T00:33:56.099Z,20.98
2022-08-07T00:38:58.684Z,20.70
2022-08-07T00:44:22.820Z,20.68
2022-08-07T00:50:18.980Z,20.36
2022-08-07T00:56:00.210Z,20.53
2022-08-07T01:01:00.277Z,20.56
2022-08-07T01:06:21.847Z,20.65
2022-08-07T01:12:10.211Z,20.82
2022-08-07T01:16:48.120Z,20.77
2022-08-07T01:21:55.362Z,20.52
2022-08-07T01:27:05.598Z,20.75
2022-08-07T01:32:23.778Z,21.01
2022-08-07T01:37:29.902Z,20.52
2022-08-07T01:42:57.532Z,20.57
2022-08-07T01:48:20.223Z,20.96
2022-08-07T01:54:00.802Z,20.82
2022-08-07T01:59:05.700Z,20.75
2022-08-07T02:04:55.895Z,20.42
2022-08-07T02:10:07.939Z,20.51
2022-08-07T02:15:26.383Z,20.41
2022-08-07T02:20:32.261Z,20.72
2022-08-07T02:26:31.144Z,20.40
2022-08-07T02:31:10.268Z,20.66
2022-08-07T02:36:32.803Z,20.46
2022-08-07T02:41:47.314Z,20.28
2022-08-07T02:46:56.942Z,20.48
2022-08-07T02:52:05.140Z,20.69
2022-08-07T02:57:14.318Z,20.63
2022-08-07T03:02:37.418Z,20.56
2022-08-07T03:08:07.102Z,20.64
2022-08-07T03:13:28.790Z,20.61
2022-08-07T03:18:44.134Z,20.50
2022-08-07T03:24:19.075Z,20.47
2022-08-07T03:29:15.421Z,20.67
2022-08-07T03:34:27.433Z,20.68
2022-08-07T03:40:07.345Z,20.56
2022-08-07T03:45:29.935Z,20.37
2022-08-07T03:50:55.911Z,20.49
2022-08-07T03:56:13.603Z,20.50
2022-08-07T04:01:29.807Z,20.50
2022-08-07T04:06:38.852Z,20.29
2022-08-07T04:12:27.825Z,19.88
2022-08-07T04:18:30.898Z,19.77
2022-08-07T04:22:53.096Z,19.90
2022-08-07T04:28:15.092Z,20.08
2022-08-07T04:33:19.323Z,19.91
2022-08-07T04:38:43.221Z,19.84
2022-08-07T04:44:09.771Z,19.82
2022-08-07T04:49:37.535Z,19.71
2022-08-07T04:55:15.587Z,20.20
2022-08-07T05:00:47.993Z,20.28
2022-08-07T05:06:19.821Z,20.33
2022-08-07T05:11:58.627Z,20.43
2022-08-07T05:17:17.493Z,20.38
2022-08-07T05:22:38.961Z,20.50
2022-08-07T05:28:03.270Z,20.44
2022-08-07T05:33:30.541Z,20.45
2022-08-07T05:39:00.331Z,19.90
2022-08-07T05:44:08.354Z,20.10
2022-08-07T05:49:41.033Z,20.36
2022-08-07T05:54:55.479Z,20.00
2022-08-07T06:00:17.972Z,20.33
2022-08-07T06:05:35.502Z,19.63
2022-08-07T06:10:45.745Z,20.29
2022-08-07T06:16:08.341Z,19.90
2022-08-07T06:22:14.842Z,19.96
2022-08-07T06:26:56.880Z,20.32
2022-08-07T06:31:59.202Z,20.29
2022-08-07T06:37:07.821Z,20.64
2022-08-07T06:42:33.049Z,20.72
2022-08-07T06:48:05.362Z,20.80
2022-08-07T06:55:27.817Z,20.46
2022-08-07T07:00:12.995Z,20.85
2022-08-07T07:04:40.164Z,20.85
2022-08-07T07:09:58.440Z,20.74
2022-08-07T07:15:00.920Z,20.97
2022-08-07T07:20:12.032Z,20.86
2022-08-07T07:26:32.140Z,20.11
2022-08-07T07:31:17.235Z,20.36
2022-08-07T07:36:32.458Z,20.17
2022-08-07T07:42:01.836Z,20.72
2022-08-07T07:47:14.149Z,20.64
2022-08-07T07:52:23.535Z,20.48
2022-08-07T07:57:53.111Z,20.45
2022-08-07T08:03:06.111Z,20.56
2022-08-07T08:08:33.793Z,20.38
2022-08-07T08:13:55.315Z,20.54
2022-08-07T08:19:09.811Z,20.44
2022-08-07T08:24:44.976Z,20.24
2022-08-07T08:30:09.320Z,20.92
2022-08-07T08:35:39.524Z,21.29
2022-08-07T08:41:15.662Z,20.86
2022-08-07T08:46:40.555Z,20.96
2022-08-07T08:52:19.002Z,20.99
2022-08-07T08:57:49.831Z,20.83
2022-08-07T09:03:49.399Z,20.83
2022-08-07T09:08:57.502Z,21.22
2022-08-07T09:14:36.624Z,21.09
2022-08-07T09:19:55.982Z,21.27
2022-08-07T09:25:17.514Z,21.06
2022-08-07T09:30:25.583Z,20.87
2022-08-07T09:36:04.048Z,21.24
2022-08-07T09:41:27.696Z,21.14
2022-08-07T09:47:50.388Z,20.25
2022-08-07T09:52:48.570Z,20.77
2022-08-07T09:58:32.454Z,20.60
2022-08-07T10:04:05.292Z,20.34
2022-08-07T10:10:00.755Z,19.86
2022-08-07T10:15:19.019Z,20.43
2022-08-07T10:20:30.503Z,21.28
2022-08-07T10:25:56.180Z,21.15
2022-08-07T10:31:01.782Z,21.14
2022-08-07T10:36:37.661Z,21.18
2022-08-07T10:42:00.234Z,20.86
2022-08-07T10:47:51.594Z,20.76
2022-08-07T10:53:51.142Z,21.02
2022-08-07T10:59:22.197Z,22.24
2022-08-07T11:04:52.509Z,22.01
2022-08-07T11:10:19.800Z,22.14
2022-08-07T11:15:31.914Z,22.79
2022-08-07T11:20:59.853Z,22.63
2022-08-07T11:26:56.321Z,22.70
2022-08-07T11:32:25.676Z,22.70
2022-08-07T11:37:58.479Z,22.81
2022-08-07T11:43:41.480Z,23.19
2022-08-07T11:49:27.799Z,23.34
2022-08-07T11:54:54.434Z,23.06
2022-08-07T12:00:19.073Z,23.05
2022-08-07T12:05:49.043Z,23.17
2022-08-07T12:11:21.341Z,23.49
2022-08-07T12:16:35.822Z,23.17
2022-08-07T12:22:38.621Z,23.32
2022-08-07T12:28:09.688Z,23.27
2022-08-07T12:33:28.205Z,23.60
2022-08-07T12:38:42.754Z,23.44
2022-08-07T12:44:03.554Z,23.05
2022-08-07T12:49:51.215Z,23.41
2022-08-07T12:55:05.191Z,23.70
2022-08-07T13:00:51.014Z,23.51
2022-08-07T13:06:21.865Z,23.75
2022-08-07T13:12:15.318Z,23.77
2022-08-07T13:18:00.785Z,23.93
2022-08-07T13:24:02.011Z,23.83
2022-08-07T13:29:21.523Z,24.10
2022-08-07T13:34:48.515Z,24.69
2022-08-07T13:40:34.847Z,24.69
2022-08-07T13:46:12.857Z,24.87
2022-08-07T13:51:27.261Z,24.73
2022-08-07T13:56:55.866Z,23.72
2022-08-07T14:02:10.620Z,23.94
2022-08-07T14:20:39.320Z,23.37
2022-08-07T14:24:28.897Z,23.87
2022-08-07T14:30:06.319Z,24.17
2022-08-07T14:35:34.422Z,24.11
2022-08-07T14:40:49.408Z,23.98
2022-08-07T14:45:55.775Z,24.28
2022-08-07T14:51:06.789Z,24.42
2022-08-07T14:56:29.876Z,24.47
2022-08-07T15:01:51.272Z,24.39
2022-08-07T15:07:21.644Z,24.32
2022-08-07T15:12:43.648Z,24.24
2022-08-07T15:18:28.451Z,24.43
2022-08-07T15:25:03.963Z,24.44
2022-08-07T15:30:10.046Z,24.53
2022-08-07T15:34:57.188Z,24.22
2022-08-07T15:40:11.150Z,24.34
2022-08-07T15:45:23.095Z,24.48
2022-08-07T15:51:05.966Z,24.29
2022-08-07T15:56:11.128Z,23.80
2022-08-07T16:01:39.510Z,23.99
2022-08-07T16:07:04.791Z,23.75
2022-08-07T16:12:12.141Z,23.85
2022-08-07T16:17:15.398Z,23.81
2022-08-07T16:22:55.218Z,23.64
2022-08-07T16:30:07.341Z,23.60
2022-08-07T16:34:23.705Z,23.61
2022-08-07T16:39:33.600Z,23.79
2022-08-07T16:46:21.323Z,23.71
2022-08-07T16:51:57.570Z,23.77
2022-08-07T16:58:01.055Z,23.72
2022-08-07T17:03:17.440Z,23.80
2022-08-07T17:09:10.761Z,23.64
2022-08-07T17:14:33.251Z,23.51
2022-08-07T17:20:01.735Z,23.26
2022-08-07T17:25:16.742Z,23.31
2022-08-07T17:30:20.286Z,23.16
2022-08-07T17:35:54.713Z,23.18
2022-08-07T17:42:01.162Z,23.31
2022-08-07T17:46:42.400Z,23.19
2022-08-07T17:52:42.482Z,23.27
2022-08-07T17:58:08.809Z,23.25
2022-08-07T18:03:20.820Z,23.20
2022-08-07T18:09:02.233Z,23.07
2022-08-07T18:14:32.948Z,22.99
2022-08-07T18:21:10.084Z,22.97
2022-08-07T18:25:40.679Z,22.93
2022-08-07T18:30:55.383Z,22.67
2022-08-07T18:36:05.944Z,22.48
2022-08-07T18:42:21.397Z,22.44
2022-08-07T18:48:00.743Z,22.17
2022-08-07T18:53:39.366Z,22.20
2022-08-07T18:59:02.654Z,21.62
2022-08-07T19:04:19.676Z,21.79
2022-08-07T19:09:56.406Z,21.78
2022-08-07T19:16:05.203Z,21.68
2022-08-07T19:21:47.750Z,21.57
2022-08-07T19:27:09.084Z,21.32
2022-08-07T19:32:18.771Z,21.18
2022-08-07T19:37:59.695Z,21.12
2022-08-07T19:43:21.936Z,20.94
2022-08-07T19:49:04.861Z,20.91
2022-08-07T19:54:34.122Z,21.06
2022-08-07T20:00:10.184Z,20.98
2022-08-07T20:05:19.946Z,20.81
2022-08-07T20:10:54.717Z,20.68
2022-08-07T20:15:58.468Z,20.57
2022-08-07T20:21:02.882Z,20.53
2022-08-07T20:26:10.038Z,20.57
2022-08-07T20:31:21.297Z,20.53
2022-08-07T20:36:31.241Z,20.59
2022-08-07T20:41:53.161Z,20.67
2022-08-07T20:47:04.211Z,20.55
2022-08-07T20:52:17.215Z,20.78
2022-08-07T20:58:02.454Z,20.49
2022-08-07T21:03:27.463Z,20.59
2022-08-07T21:08:58.280Z,20.46
2022-08-07T21:14:35.401Z,20.54
2022-08-07T21:19:51.341Z,20.63
2022-08-07T21:25:56.416Z,20.27
2022-08-07T21:31:49.376Z,20.12
2022-08-07T21:37:00.710Z,20.05
2022-08-07T21:42:46.641Z,20.19
2022-08-07T21:48:03.001Z,20.08
2022-08-07T21:53:13.041Z,19.66
2022-08-07T21:59:07.662Z,19.85
2022-08-07T22:04:34.207Z,19.84
2022-08-07T22:09:53.758Z,20.01
2022-08-07T22:16:41.062Z,20.16
2022-08-07T22:20:59.115Z,20.26
2022-08-07T22:26:38.043Z,20.32
2022-08-07T22:32:06.340Z,20.16
2022-08-07T22:38:03.233Z,20.14
2022-08-07T22:43:21.201Z,20.06
2022-08-07T22:49:00.769Z,19.84
2022-08-07T22:54:48.944Z,19.87
2022-08-07T23:00:03.238Z,19.58
2022-08-07T23:06:08.902Z,19.62
2022-08-07T23:11:45.866Z,19.85
2022-08-07T23:17:28.780Z,19.70
2022-08-07T23:23:14.339Z,19.82
2022-08-07T23:29:01.762Z,20.06
2022-08-07T23:34:42.252Z,19.92
2022-08-07T23:40:12.621Z,19.63
2022-08-07T23:45:15.107Z,19.57
2022-08-07T23:50:45.240Z,19.63
2022-08-07T23:56:02.781Z,19.65
